Etusivu
METAR-TAF:

METAR-TAF

Lentoasemat :

Hassi Messaoud, Algeria

Leveyspiiri: 31-40N, Pituuspiiri: 006-09E, korkeus merenpinnasta: 142 m

Tämänhetkinen sää

Tämä raportti tehtiin 40 minuuttia sitten, kello 05.30 UTC
Tuuli 8 kn pohjoisen/luoteesta
Lämpötila 12°C
Kosteus 58%
Ilmanpaine 1018 hPa
Näkyvyys 10 km tai enemmän
ei pilviä alle 1500 m:ssä eikä cumulonimbus-pilviä

METAR: DAUH 270530Z 33008KT CAVOK 12/04 Q1018

Aika: 07:10 (06:10 UTC)

Sääennuste

Tämä raportti tehtiin 1 tunti ja 10 minuuttia sitten, kello 05.00 UTC
Ennuste voimassa 27. päivästä klo 06 UTC - 28. päivään klo 06 UTC
Tuuli 12 kn luoteesta
Näkyvyys 10 km tai enemmän
ei pilviä alle 1500 m:ssä eikä cumulonimbus-pilviä
Tulossa
27. päivästä klo 20 UTC - 27. päivään klo 23 UTC
Tuuli 2 kn eri suunnista

TAF: DAUH 270500Z 2706/2806 32012KT CAVOK BECMG 2720/2723 VRB02KT

Säähavainnot ja -ennusteet yli 4000 lentoasemalta (METAR- ja TAF-raportit).

Käytössä olevat sääasemat on merkitty karttaan keltaisilla ja punaisilla pisteillä.

Aseta hiiri pisteen päälle nähdäksesi sääaseman nimen.

Klikkaa sitten nähdäksesi säähavainnot ja -ennusteet.

Kartan vaihtaminen: klikkaa mustalla rastilla varustettuja vihreitä pisteitä, niin voit zoomata sisään; viivalla varustettua vihreää pistettä, niin voit zoomata ulos tai vihreitä nuolia, niin pääset viereisille kartoille.


METAR-TAF: